Latest Weather Observations for Goulburn Airport

IDN60901

Issued at 9:11 am EST Wednesday 19 June 2019 (issued every 10 minutes, with the page automatically refreshed every 10 minutes)

About weather observations | Map of Canberra area stations | Latest observations for Canberra area | Other Formats
Station Details ID: 070330 Name: GOULBURN AIRPORT AWS Lat: -34.81 Lon: 149.73 Height: 640.0 m
Data from the previous 72 hours. | See also: Recent months at Goulburn Airport
Date/Time
EST
Temp
°C
App
Temp
°C
Dew
Point
°C
Rel
Hum
%
Delta-T
°C
Wind Press
QNH
hPa
Press
MSL
hPa
Rain since
9am
mm
Dir  Spd
km/h
Gust
km/h
Spd
kts
Gust
kts
19/09:03am 4.6 0.2 2.5 86 0.9 WNW 15 19 8 10 1022.5 1023.4 0.0
19/09:00am 4.9 0.6 3.1 88 0.8 WNW 15 19 8 10 1022.4 1023.3 0.2
19/08:30am 4.1 -0.5 3.8 98 0.1 WNW 17 22 9 12 1022.1 1023.0 0.2
19/08:17am 3.4 -0.6 3.0 97 0.2 WNW 13 20 7 11 1022.1 1023.0 0.2
19/08:05am 3.2 -1.1 3.1 99 0.0 WNW 15 20 8 11 1022.0 1022.9 0.2
19/08:02am 3.2 -1.1 3.1 99 0.0 WNW 15 20 8 11 1022.0 1022.9 0.2
19/08:00am 3.1 -1.2 3.0 99 0.0 W 15 20 8 11 1021.9 1022.8 0.2
19/07:46am 2.8 -0.8 2.7 99 0.0 WNW 11 15 6 8 1022.0 1022.9 0.2
19/07:30am 2.5 -2.3 2.4 99 0.0 WNW 17 24 9 13 1021.6 1022.4 0.2
19/07:22am 2.6 -2.2 2.5 99 0.0 WNW 17 20 9 11 1021.4 1022.3 0.2
19/07:00am 2.9 -1.1 2.8 99 0.0 NW 13 15 7 8 1021.0 1021.9 0.2
19/06:30am 2.8 -0.1 2.7 99 0.0 E 7 11 4 6 1020.8 1021.7 0.2
19/06:03am 2.4 -0.4 2.3 99 0.0 NE 6 9 3 5 1020.3 1021.1 0.2
19/06:00am 2.2 -0.6 1.9 98 0.1 E 6 7 3 4 1020.3 1021.1 0.2
19/05:30am 2.9 -2.3 2.6 98 0.1 WNW 19 22 10 12 1019.7 1020.6 0.2
19/05:00am 2.9 -1.2 2.3 96 0.2 W 13 17 7 9 1019.5 1020.4 0.2
19/04:30am 3.7 -1.4 2.8 94 0.4 W 19 30 10 16 1019.7 1020.6 0.2
19/04:00am 4.1 -1.9 3.4 95 0.3 W 24 32 13 17 1019.7 1020.6 0.2
19/03:30am 4.3 -0.8 3.9 97 0.2 WNW 20 28 11 15 1019.9 1020.7 0.2
19/03:00am 4.4 -0.7 4.1 98 0.1 WNW 20 26 11 14 1019.7 1020.6 0.2
19/02:30am 3.8 -0.4 3.7 99 0.0 WNW 15 17 8 9 1019.7 1020.6 0.2
19/02:00am 4.1 0.7 4.0 99 0.0 WNW 11 17 6 9 1019.9 1020.7 0.2
19/01:30am 4.6 0.8 4.0 96 0.3 WNW 13 15 7 8 1019.5 1020.4 0.2
19/01:00am 5.7 1.0 5.1 96 0.3 WNW 19 24 10 13 1019.4 1020.3 0.2
19/12:30am 5.8 0.9 5.1 95 0.3 WNW 20 24 11 13 1019.6 1020.5 0.2
19/12:00am 6.1 0.9 5.4 95 0.3 WNW 22 28 12 15 1019.5 1020.4 0.2
 
Date/Time
EST
Temp
°C
App
Temp
°C
Dew
Point
°C
Rel
Hum
%
Delta-T
°C
Wind Press
QNH
hPa
Press
MSL
hPa
Rain since
9am
mm
Dir  Spd
km/h
Gust
km/h
Spd
kts
Gust
kts
18/11:30pm 5.6 0.7 5.3 98 0.1 WNW 20 28 11 15 1019.7 1020.6 0.2
18/11:00pm 4.1 -0.2 3.2 94 0.4 NW 15 19 8 10 1019.7 1020.6 0.0
18/10:30pm 3.8 -0.5 3.2 96 0.3 NW 15 17 8 9 1019.6 1020.5 0.0
18/10:00pm 3.7 -0.6 3.0 95 0.3 NW 15 17 8 9 1019.6 1020.5 0.0
18/09:30pm 3.9 0.3 3.0 94 0.4 WNW 11 13 6 7 1019.7 1020.6 0.0
18/09:00pm 4.8 0.5 3.1 89 0.7 WNW 15 17 8 9 1019.5 1020.4 0.0
18/08:30pm 4.9 0.7 3.7 92 0.5 WNW 15 17 8 9 1019.7 1020.6 0.0
18/08:00pm 5.0 1.7 2.4 83 1.1 WNW 9 13 5 7 1019.9 1020.7 0.0
18/07:30pm 6.3 2.3 3.1 80 1.4 W 13 17 7 9 1020.0 1020.8 0.0
18/07:00pm 7.0 2.3 3.3 77 1.6 WNW 17 22 9 12 1019.6 1020.5 0.0
18/06:30pm 7.2 2.0 3.3 76 1.7 WNW 20 30 11 16 1019.3 1020.2 0.0
18/06:00pm 7.6 2.2 2.7 71 2.1 WNW 20 28 11 15 1019.1 1020.0 0.0
18/05:30pm 7.6 2.1 2.1 68 2.4 WNW 20 28 11 15 1018.9 1019.7 0.0
18/05:00pm 8.6 2.4 2.0 63 2.8 WNW 24 30 13 16 1018.4 1019.2 0.0
18/04:30pm 9.4 3.7 2.9 64 2.9 WNW 22 32 12 17 1018.1 1019.0 0.0
18/04:00pm 9.8 5.1 6.2 78 1.7 WNW 20 30 11 16 1018.1 1019.0 0.0
18/03:44pm 10.0 5.6 6.7 80 1.6 WNW 19 28 10 15 1018.0 1018.9 0.0
18/03:30pm 10.0 5.1 6.7 80 1.6 WNW 22 28 12 15 1018.0 1018.9 0.0
18/03:27pm 10.0 5.0 6.5 79 1.7 WNW 22 28 12 15 1018.0 1018.9 0.0
18/03:00pm 10.3 5.0 6.6 78 1.8 WNW 24 33 13 18 1018.1 1019.0 0.0
18/02:30pm 10.7 6.1 6.6 76 2.0 W 20 28 11 15 1018.3 1019.1 0.0
18/02:00pm 11.1 6.1 6.3 72 2.3 WNW 22 32 12 17 1018.3 1019.1 0.0
18/01:30pm 11.5 5.6 6.0 69 2.7 WNW 26 32 14 17 1018.4 1019.2 0.0
18/01:00pm 11.8 6.3 5.7 66 2.9 W 24 30 13 16 1018.7 1019.5 0.0
18/12:52pm 11.7 6.2 5.8 67 2.9 WNW 24 32 13 17 1018.8 1019.6 0.0
18/12:33pm 11.4 7.1 6.9 74 2.2 WNW 19 26 10 14 1019.1 1020.0 0.0
18/12:30pm 11.4 7.2 7.3 76 2.0 WNW 19 24 10 13 1019.2 1020.1 0.0
18/12:00pm 10.8 6.9 7.3 79 1.7 WNW 17 20 9 11 1019.6 1020.5 0.0
18/11:30am 9.9 6.8 7.2 83 1.3 WNW 13 19 7 10 1020.0 1020.8 0.0
18/11:00am 8.5 6.1 7.1 91 0.7 NNW 9 13 5 7 1020.6 1021.5 0.0
18/10:30am 7.9 5.3 7.8 99 0.0 NW 11 15 6 8 1021.0 1021.9 0.0
18/10:00am 7.3 5.3 7.3 100 0.0 NW 7 9 4 5 1021.0 1021.9 0.0
18/09:51am 7.0 4.6 7.0 100 0.0 NW 9 11 5 6 1021.0 1021.9 0.0
18/09:30am 6.3 4.1 6.2 99 0.0 NNW 7 9 4 5 1021.0 1021.9 0.0
18/09:07am 5.8 3.5 5.7 99 0.0 N 7 9 4 5 1021.0 1021.9 0.0
18/09:00am 5.8 3.5 5.7 99 0.0 NNW 7 9 4 5 1021.0 1021.9 0.0
18/08:30am 4.8 2.9 4.7 99 0.0 NNW 4 9 2 5 1020.9 1021.8 0.0
18/08:00am 4.4 1.8 4.3 99 0.0 NW 7 9 4 5 1020.9 1021.8 0.0
18/07:30am 4.6 3.0 4.5 99 0.0 NNW 2 7 1 4 1020.7 1021.6 0.0
18/07:00am 4.4 2.0 4.3 99 0.0 N 6 9 3 5 1020.7 1021.6 0.0
18/06:30am 4.1 1.6 4.0 99 0.0 NW 6 9 3 5 1020.6 1021.5 0.0
18/06:00am 3.4 0.6 3.3 99 0.0 W 7 11 4 6 1020.4 1021.3 0.0
18/05:30am 3.8 0.7 3.7 99 0.0 W 9 11 5 6 1020.3 1021.1 0.0
18/05:00am 4.3 1.3 4.2 99 0.0 WNW 9 13 5 7 1020.4 1021.3 0.0
18/04:30am 4.7 3.1 4.6 99 0.0 WSW 2 7 1 4 1020.2 1021.0 0.0
18/04:00am 4.2 2.9 4.1 99 0.0 CALM 0 0 0 0 1020.3 1021.1 0.0
18/03:30am 4.1 2.8 4.0 99 0.0 CALM 0 0 0 0 1020.6 1021.5 0.0
18/03:00am 4.5 2.9 4.4 99 0.0 WSW 2 6 1 3 1020.9 1021.8 0.0
18/02:30am 4.7 2.7 4.6 99 0.0 WSW 4 6 2 3 1020.9 1021.8 0.0
18/02:00am 4.4 3.1 4.3 99 0.0 CALM 0 0 0 0 1021.1 1022.0 0.0
18/01:52am 4.4 3.1 4.3 99 0.0 CALM 0 0 0 0 1021.3 1022.2 0.0
18/01:30am 3.4 2.0 3.3 99 0.0 CALM 0 0 0 0 1021.3 1022.2 0.0
18/01:00am 4.4 3.1 4.3 99 0.0 CALM 0 0 0 0 1021.6 1022.4 0.0
18/12:47am 4.5 3.3 4.4 99 0.0 CALM 0 0 0 0 1021.7 1022.6 0.0
18/12:30am 5.2 4.1 5.1 99 0.0 CALM 0 0 0 0 1021.8 1022.7 0.0
18/12:00am 5.1 4.0 5.0 99 0.0 CALM 0 0 0 0 1022.0 1022.9 0.0
 
Date/Time
EST
Temp
°C
App
Temp
°C
Dew
Point
°C
Rel
Hum
%
Delta-T
°C
Wind Press
QNH
hPa
Press
MSL
hPa
Rain since
9am
mm
Dir  Spd
km/h
Gust
km/h
Spd
kts
Gust
kts
17/11:30pm 5.6 4.2 5.5 99 0.0 WSW 2 6 1 3 1022.1 1023.0 0.0
17/11:00pm 5.8 4.8 5.7 99 0.0 CALM 0 0 0 0 1022.5 1023.4 0.0
17/10:30pm 5.6 4.2 5.5 99 0.0 WSW 2 7 1 4 1022.5 1023.4 0.0
17/10:00pm 5.1 4.0 5.0 99 0.0 CALM 0 0 0 0 1022.6 1023.5 0.0
17/09:30pm 5.0 3.9 4.9 99 0.0 CALM 0 0 0 0 1022.8 1023.7 0.0
17/09:00pm 5.1 2.3 5.0 99 0.0 WSW 9 13 5 7 1022.6 1023.5 0.0
17/08:30pm 5.8 2.7 5.7 99 0.0 SSW 11 13 6 7 1022.6 1023.5 0.0
17/08:00pm 5.2 3.3 5.1 99 0.0 S 4 9 2 5 1022.4 1023.3 0.0
17/07:30pm 5.4 2.5 4.8 96 0.3 SSW 9 11 5 6 1022.1 1023.0 0.0
17/07:00pm 6.3 4.0 5.6 95 0.3 SW 7 9 4 5 1022.2 1023.1 0.0
17/06:30pm 7.8 5.6 6.3 90 0.7 SE 7 11 4 6 1021.8 1022.7 0.0
17/06:00pm 8.7 7.9 6.7 87 1.0 CALM 0 0 0 0 1021.8 1022.7 0.0
17/05:30pm 9.1 8.3 6.7 85 1.2 CALM 0 0 0 0 1021.9 1022.8 0.0
17/05:00pm 10.2 9.5 7.1 81 1.5 CALM 0 0 0 0 1021.7 1022.6 0.0
17/04:30pm 10.1 7.6 6.6 79 1.7 SSE 9 13 5 7 1021.3 1022.2 0.0
17/04:00pm 10.9 8.5 7.0 77 1.9 SSE 9 11 5 6 1021.4 1022.3 0.0
17/03:30pm 10.5 8.6 6.5 76 1.9 ESE 6 9 3 5 1021.7 1022.6 0.0
17/03:00pm 10.5 7.2 6.5 76 1.9 SSE 13 17 7 9 1021.6 1022.4 0.0
17/02:30pm 10.8 7.9 6.6 75 2.1 SSE 11 15 6 8 1021.3 1022.2 0.0
17/02:02pm 10.3 5.8 7.0 80 1.6 SSE 20 24 11 13 1021.1 1022.0 0.0
17/02:00pm 10.3 5.7 6.6 78 1.8 SSE 20 24 11 13 1021.1 1022.0 0.0
17/01:30pm 10.4 6.5 6.9 79 1.7 S 17 24 9 13 1021.3 1022.2 0.0
17/01:00pm 10.3 6.1 7.4 82 1.4 S 19 24 10 13 1021.4 1022.3 0.0
17/12:30pm 9.7 5.2 7.0 83 1.3 S 20 26 11 14 1021.8 1022.7 0.0
17/12:00pm 9.7 5.2 6.8 82 1.4 SSE 20 26 11 14 1022.1 1023.0 0.0
17/11:30am 9.2 4.7 7.0 86 1.1 S 20 24 11 13 1022.3 1023.2 0.0
17/11:00am 9.3 5.0 6.9 85 1.2 S 19 24 10 13 1022.6 1023.5 0.0
17/10:59am 9.4 5.2 7.3 87 1.0 S 19 24 10 13 1022.6 1023.5 0.0
17/10:37am 9.0 4.1 7.0 87 1.0 SSE 22 26 12 14 1022.5 1023.4 0.0
17/10:30am 9.1 4.0 7.5 90 0.8 SSE 24 30 13 16 1022.4 1023.3 0.0
17/10:00am 8.1 3.5 6.6 90 0.7 S 20 26 11 14 1022.6 1023.5 0.0
17/09:38am 7.9 3.3 6.5 91 0.7 S 20 24 11 13 1022.6 1023.5 0.0
17/09:30am 7.7 3.0 6.2 90 0.7 S 20 28 11 15 1022.6 1023.5 0.0
17/09:00am 7.4 3.6 6.0 91 0.7 S 15 19 8 10 1022.6 1023.5 9.6
17/08:30am 7.3 4.1 6.7 96 0.3 S 13 13 7 7 1022.4 1023.3 9.6
17/08:00am 7.1 4.3 7.0 99 0.0 SSW 11 15 6 8 1022.1 1023.0 9.6
17/07:30am 6.9 3.7 6.8 99 0.0 SSW 13 17 7 9 1021.7 1022.6 9.6
17/07:00am 6.3 5.4 6.2 99 0.0 CALM 0 0 0 0 1021.7 1022.6 9.6
17/06:30am 6.2 4.2 6.1 99 0.0 E 6 7 3 4 1021.2 1022.1 9.6
17/06:00am 6.5 3.2 6.4 99 0.0 SSW 13 17 7 9 1021.1 1022.0 9.6
17/05:30am 5.2 2.4 5.1 99 0.0 S 9 11 5 6 1021.0 1021.9 9.6
17/05:00am 5.9 3.2 5.8 99 0.0 SSW 9 11 5 6 1020.9 1021.8 9.6
17/04:30am 6.3 3.3 6.2 99 0.0 SSW 11 11 6 6 1020.7 1021.6 9.6
17/04:10am 7.0 4.2 6.9 99 0.0 SSW 11 13 6 7 1020.8 1021.7 9.6
17/04:00am 7.1 4.3 7.0 99 0.0 SSW 11 13 6 7 1020.8 1021.7 9.6
17/03:30am 7.3 4.2 7.2 99 0.0 SSW 13 15 7 8 1020.6 1021.5 9.6
17/03:00am 7.2 4.8 7.1 99 0.0 SW 9 11 5 6 1020.9 1021.8 9.6
17/02:46am 7.1 4.7 7.0 99 0.0 SSW 9 13 5 7 1020.9 1021.8 9.6
17/02:43am 7.1 5.1 7.0 99 0.0 SSW 7 11 4 6 1020.9 1021.8 9.6
17/02:30am 7.0 6.3 6.9 99 0.0 CALM 0 6 0 3 1020.9 1021.8 9.6
17/02:20am 7.0 6.3 6.9 99 0.0 CALM 0 0 0 0 1021.0 1021.9 9.6
17/02:06am 7.0 6.3 6.9 99 0.0 CALM 0 0 0 0 1021.1 1022.0 9.4
17/02:00am 7.0 6.3 6.9 99 0.0 CALM 0 0 0 0 1021.1 1022.0 9.4
17/01:59am 7.0 6.3 6.9 99 0.0 CALM 0 0 0 0 1021.1 1022.0 9.4
17/01:30am 7.0 6.3 6.9 99 0.0 CALM 0 0 0 0 1021.4 1022.3 9.4
17/01:21am 7.0 6.3 6.9 99 0.0 CALM 0 0 0 0 1021.6 1022.4 9.4
17/01:00am 7.0 6.3 6.9 99 0.0 CALM 0 6 0 3 1021.6 1022.4 9.4
17/12:53am 7.0 5.1 6.9 99 0.0 SSW 6 7 3 4 1021.7 1022.6 9.4
17/12:30am 6.9 6.2 6.8 99 0.0 CALM 0 4 0 2 1021.8 1022.7 9.4
17/12:00am 6.9 5.0 6.8 99 0.0 SSW 6 7 3 4 1021.8 1022.7 9.4
 
Date/Time
EST
Temp
°C
App
Temp
°C
Dew
Point
°C
Rel
Hum
%
Delta-T
°C
Wind Press
QNH
hPa
Press
MSL
hPa
Rain since
9am
mm
Dir  Spd
km/h
Gust
km/h
Spd
kts
Gust
kts
16/11:30pm 7.0 6.3 6.9 99 0.0 CALM 0 0 0 0 1021.9 1022.8 9.4
16/11:00pm 7.2 6.5 7.1 99 0.0 CALM 0 0 0 0 1021.9 1022.8 9.4
16/10:30pm 7.4 6.8 7.3 99 0.0 CALM 0 0 0 0 1021.8 1022.7 9.4
16/10:00pm 7.4 5.4 7.3 99 0.0 SSW 7 9 4 5 1021.8 1022.7 9.2
16/09:30pm 7.4 5.1 7.3 99 0.0 SSW 9 9 5 5 1021.9 1022.8 9.2
16/09:00pm 7.4 5.4 7.3 99 0.0 SSW 7 7 4 4 1021.8 1022.7 9.0
16/08:30pm 7.5 5.2 7.4 99 0.0 SSW 9 9 5 5 1021.8 1022.7 8.2
16/08:00pm 7.5 5.6 7.4 99 0.0 SSE 7 11 4 6 1021.7 1022.6 7.8
16/07:30pm 7.6 5.3 7.5 99 0.0 SE 9 13 5 7 1021.7 1022.6 7.2
16/07:00pm 7.9 5.3 7.8 99 0.0 ESE 11 15 6 8 1021.6 1022.4 6.6
16/06:30pm 8.1 5.2 8.0 99 0.0 SSE 13 17 7 9 1021.3 1022.2 6.2
16/06:01pm 8.3 4.3 8.2 99 0.0 SSE 19 22 10 12 1021.0 1021.9 5.8
16/06:00pm 8.3 4.3 8.2 99 0.0 SSE 19 22 10 12 1021.0 1021.9 5.8
16/05:30pm 8.7 5.5 8.6 99 0.1 S 15 24 8 13 1020.9 1021.8 4.4
16/05:00pm 8.7 6.3 8.6 99 0.1 SSE 11 13 6 7 1020.7 1021.6 3.0
16/04:58pm 8.7 6.3 8.6 99 0.1 SSE 11 15 6 8 1020.7 1021.6 3.0
16/04:30pm 8.7 5.9 8.6 99 0.1 S 13 17 7 9 1020.5 1021.4 2.6
16/04:15pm 8.8 5.6 8.4 97 0.2 S 15 17 8 9 1020.5 1021.4 2.4
16/04:00pm 8.9 4.9 8.3 96 0.3 S 19 22 10 12 1020.4 1021.3 1.2
16/03:30pm 9.6 6.1 8.7 94 0.5 S 17 20 9 11 1020.5 1021.4 0.4
16/03:00pm 9.9 5.9 8.3 90 0.8 S 19 22 10 12 1020.5 1021.4 0.2
16/02:30pm 9.8 6.2 8.2 90 0.8 SSE 17 20 9 11 1020.5 1021.4 0.2
16/02:00pm 10.0 6.1 8.8 92 0.6 SSE 19 22 10 12 1020.4 1021.3 0.2
16/01:39pm 10.1 6.3 9.2 94 0.5 SSE 19 22 10 12 1020.5 1021.4 0.2
16/01:30pm 10.1 6.3 9.0 93 0.6 S 19 24 10 13 1020.6 1021.5 0.2
16/01:00pm 10.0 6.5 8.9 93 0.6 SSE 17 24 9 13 1020.9 1021.8 0.2
16/12:30pm 9.8 6.8 9.2 96 0.3 SSE 15 20 8 11 1021.6 1022.4 0.2
16/12:00pm 9.1 6.0 8.8 98 0.2 S 15 17 8 9 1022.0 1022.9 0.2
16/11:30am 9.0 6.3 8.9 99 0.1 S 13 17 7 9 1022.5 1023.4 0.0
16/11:10am 9.2 6.5 9.1 99 0.1 SSE 13 15 7 8 1022.7 1023.6 0.0
16/11:00am 8.9 6.2 8.8 99 0.1 SSE 13 15 7 8 1022.9 1023.8 0.0
16/10:30am 8.3 6.6 8.2 99 0.0 S 7 9 4 5 1023.0 1024.0 0.0
16/10:00am 7.7 5.8 7.6 99 0.0 S 7 9 4 5 1022.9 1023.8 0.0
16/09:30am 7.1 4.3 7.0 99 0.0 SW 11 13 6 7 1022.8 1023.7 0.0

Latest Capital City Observations: Canberra | Sydney | Melbourne | Brisbane | Adelaide | Perth | Hobart | Darwin

Other formats

Comma delimited format used in spreadsheet applications
http://www.bom.gov.au/fwo/IDN60903/IDN60903.95716.axf

JavaScript Object Notation format (JSON) in row-major order
http://www.bom.gov.au/fwo/IDN60903/IDN60903.95716.json

Data quality

Most of these data are generated automatically and are frequently updated. Quality checks on data are not normally performed. It is possible for incorrect values to appear. Refer to information at About Latest Weather Observations and please check the disclaimer before using these data.